sensor_id;sensor_type;location;lat;lon;timestamp;temperature;humidity
1455;DHT22;721;48.168;12.818;2023-11-19T00:02:25;5.50;39.50
1455;DHT22;721;48.168;12.818;2023-11-19T00:04:52;5.50;38.20
1455;DHT22;721;48.168;12.818;2023-11-19T00:07:20;5.50;39.60
1455;DHT22;721;48.168;12.818;2023-11-19T00:09:48;5.50;38.80
1455;DHT22;721;48.168;12.818;2023-11-19T00:12:15;5.50;37.40
1455;DHT22;721;48.168;12.818;2023-11-19T00:14:42;5.50;39.20
1455;DHT22;721;48.168;12.818;2023-11-19T00:17:09;5.50;39.50
1455;DHT22;721;48.168;12.818;2023-11-19T00:19:36;5.40;40.30
1455;DHT22;721;48.168;12.818;2023-11-19T00:22:03;5.50;38.80
1455;DHT22;721;48.168;12.818;2023-11-19T00:24:30;5.50;39.60
1455;DHT22;721;48.168;12.818;2023-11-19T00:26:58;5.50;41.10
1455;DHT22;721;48.168;12.818;2023-11-19T00:29:25;5.50;40.90
1455;DHT22;721;48.168;12.818;2023-11-19T00:31:52;5.50;39.80
1455;DHT22;721;48.168;12.818;2023-11-19T00:34:18;5.50;40.70
1455;DHT22;721;48.168;12.818;2023-11-19T00:36:48;5.50;39.90
1455;DHT22;721;48.168;12.818;2023-11-19T00:39:15;5.60;40.20
1455;DHT22;721;48.168;12.818;2023-11-19T00:41:43;5.60;39.80
1455;DHT22;721;48.168;12.818;2023-11-19T00:44:12;5.60;39.80
1455;DHT22;721;48.168;12.818;2023-11-19T00:46:39;5.60;40.00
1455;DHT22;721;48.168;12.818;2023-11-19T00:49:06;5.60;41.20
1455;DHT22;721;48.168;12.818;2023-11-19T00:51:33;5.60;41.00
1455;DHT22;721;48.168;12.818;2023-11-19T00:54:00;5.60;40.80
1455;DHT22;721;48.168;12.818;2023-11-19T00:56:27;5.60;41.40
1455;DHT22;721;48.168;12.818;2023-11-19T00:58:54;5.60;41.30
1455;DHT22;721;48.168;12.818;2023-11-19T01:01:23;5.60;41.40
1455;DHT22;721;48.168;12.818;2023-11-19T01:03:50;5.60;40.00
1455;DHT22;721;48.168;12.818;2023-11-19T01:06:27;5.60;40.90
1455;DHT22;721;48.168;12.818;2023-11-19T01:08:53;5.60;41.40
1455;DHT22;721;48.168;12.818;2023-11-19T01:11:22;5.60;41.60
1455;DHT22;721;48.168;12.818;2023-11-19T01:13:50;5.70;41.70
1455;DHT22;721;48.168;12.818;2023-11-19T01:16:17;5.80;42.40
1455;DHT22;721;48.168;12.818;2023-11-19T01:18:46;5.70;42.30
1455;DHT22;721;48.168;12.818;2023-11-19T01:21:13;5.70;42.30
1455;DHT22;721;48.168;12.818;2023-11-19T01:23:41;5.70;41.10
1455;DHT22;721;48.168;12.818;2023-11-19T01:26:09;5.60;41.40
1455;DHT22;721;48.168;12.818;2023-11-19T01:28:37;5.60;42.00
1455;DHT22;721;48.168;12.818;2023-11-19T01:31:05;5.70;41.70
1455;DHT22;721;48.168;12.818;2023-11-19T01:33:32;5.60;42.10
1455;DHT22;721;48.168;12.818;2023-11-19T01:36:00;5.60;41.50
1455;DHT22;721;48.168;12.818;2023-11-19T01:38:27;5.70;40.80
1455;DHT22;721;48.168;12.818;2023-11-19T01:40:56;5.70;41.40
1455;DHT22;721;48.168;12.818;2023-11-19T01:43:33;5.80;41.60
1455;DHT22;721;48.168;12.818;2023-11-19T01:46:00;5.70;40.80
1455;DHT22;721;48.168;12.818;2023-11-19T01:48:27;5.60;42.20
1455;DHT22;721;48.168;12.818;2023-11-19T01:50:55;5.60;42.20
1455;DHT22;721;48.168;12.818;2023-11-19T01:53:24;5.60;42.20
1455;DHT22;721;48.168;12.818;2023-11-19T01:55:51;5.70;42.30
1455;DHT22;721;48.168;12.818;2023-11-19T01:58:19;5.90;42.50
1455;DHT22;721;48.168;12.818;2023-11-19T02:00:46;5.70;42.30
1455;DHT22;721;48.168;12.818;2023-11-19T02:03:14;5.80;42.40
1455;DHT22;721;48.168;12.818;2023-11-19T02:05:41;6.00;42.30
1455;DHT22;721;48.168;12.818;2023-11-19T02:08:08;5.80;41.80
1455;DHT22;721;48.168;12.818;2023-11-19T02:10:37;5.80;41.60
1455;DHT22;721;48.168;12.818;2023-11-19T02:13:04;5.90;41.40
1455;DHT22;721;48.168;12.818;2023-11-19T02:15:32;5.80;41.50
1455;DHT22;721;48.168;12.818;2023-11-19T02:18:17;5.90;41.40
1455;DHT22;721;48.168;12.818;2023-11-19T02:20:43;5.90;40.90
1455;DHT22;721;48.168;12.818;2023-11-19T02:23:11;5.80;42.50
1455;DHT22;721;48.168;12.818;2023-11-19T02:25:40;5.90;42.50
1455;DHT22;721;48.168;12.818;2023-11-19T02:28:09;5.90;42.50
1455;DHT22;721;48.168;12.818;2023-11-19T02:30:37;5.90;40.90
1455;DHT22;721;48.168;12.818;2023-11-19T02:33:04;6.00;41.00
1455;DHT22;721;48.168;12.818;2023-11-19T02:35:32;5.90;41.40
1455;DHT22;721;48.168;12.818;2023-11-19T02:37:59;5.90;40.80
1455;DHT22;721;48.168;12.818;2023-11-19T02:40:26;5.90;42.50
1455;DHT22;721;48.168;12.818;2023-11-19T02:42:53;5.90;41.10
1455;DHT22;721;48.168;12.818;2023-11-19T02:45:23;5.90;42.50
1455;DHT22;721;48.168;12.818;2023-11-19T02:47:50;5.80;42.40
1455;DHT22;721;48.168;12.818;2023-11-19T02:50:18;5.80;42.40
1455;DHT22;721;48.168;12.818;2023-11-19T02:52:51;5.90;42.10
1455;DHT22;721;48.168;12.818;2023-11-19T02:55:19;5.90;42.50
1455;DHT22;721;48.168;12.818;2023-11-19T02:57:46;5.90;43.10
1455;DHT22;721;48.168;12.818;2023-11-19T03:00:15;5.90;42.70
1455;DHT22;721;48.168;12.818;2023-11-19T03:02:44;5.90;42.50
1455;DHT22;721;48.168;12.818;2023-11-19T03:05:12;5.90;43.00
1455;DHT22;721;48.168;12.818;2023-11-19T03:07:40;5.90;42.90
1455;DHT22;721;48.168;12.818;2023-11-19T03:10:09;6.00;43.50
1455;DHT22;721;48.168;12.818;2023-11-19T03:12:39;6.10;43.50
1455;DHT22;721;48.168;12.818;2023-11-19T03:15:06;6.00;43.50
1455;DHT22;721;48.168;12.818;2023-11-19T03:17:35;5.90;44.00
1455;DHT22;721;48.168;12.818;2023-11-19T03:20:05;6.00;43.40
1455;DHT22;721;48.168;12.818;2023-11-19T03:22:33;6.00;43.60
1455;DHT22;721;48.168;12.818;2023-11-19T03:25:00;6.00;43.00
1455;DHT22;721;48.168;12.818;2023-11-19T03:27:27;6.00;43.80
1455;DHT22;721;48.168;12.818;2023-11-19T03:29:54;5.90;44.20
1455;DHT22;721;48.168;12.818;2023-11-19T03:32:21;6.00;44.40
1455;DHT22;721;48.168;12.818;2023-11-19T03:34:47;6.00;44.10
1455;DHT22;721;48.168;12.818;2023-11-19T03:37:15;6.10;42.70
1455;DHT22;721;48.168;12.818;2023-11-19T03:39:43;6.10;43.10
1455;DHT22;721;48.168;12.818;2023-11-19T03:42:09;6.10;42.40
1455;DHT22;721;48.168;12.818;2023-11-19T03:44:38;6.00;43.60
1455;DHT22;721;48.168;12.818;2023-11-19T03:47:05;6.10;43.10
1455;DHT22;721;48.168;12.818;2023-11-19T03:49:32;6.10;42.70
1455;DHT22;721;48.168;12.818;2023-11-19T03:51:59;6.20;42.90
1455;DHT22;721;48.168;12.818;2023-11-19T03:54:28;6.20;42.80
1455;DHT22;721;48.168;12.818;2023-11-19T03:56:54;6.10;42.90
1455;DHT22;721;48.168;12.818;2023-11-19T03:59:20;6.10;43.60
1455;DHT22;721;48.168;12.818;2023-11-19T04:01:47;6.10;43.60
1455;DHT22;721;48.168;12.818;2023-11-19T04:04:14;6.10;44.30
1455;DHT22;721;48.168;12.818;2023-11-19T04:06:41;6.10;44.30
1455;DHT22;721;48.168;12.818;2023-11-19T04:09:09;5.90;43.00
1455;DHT22;721;48.168;12.818;2023-11-19T04:11:37;6.20;43.30
1455;DHT22;721;48.168;12.818;2023-11-19T04:14:05;6.20;42.60
1455;DHT22;721;48.168;12.818;2023-11-19T04:16:32;6.20;42.80
1455;DHT22;721;48.168;12.818;2023-11-19T04:18:59;6.30;42.90
1455;DHT22;721;48.168;12.818;2023-11-19T04:21:25;6.30;42.70
1455;DHT22;721;48.168;12.818;2023-11-19T04:23:52;6.30;41.70
1455;DHT22;721;48.168;12.818;2023-11-19T04:26:19;6.20;41.60
1455;DHT22;721;48.168;12.818;2023-11-19T04:28:47;6.20;42.80
1455;DHT22;721;48.168;12.818;2023-11-19T04:31:15;6.30;42.90
1455;DHT22;721;48.168;12.818;2023-11-19T04:33:42;6.20;42.00
1455;DHT22;721;48.168;12.818;2023-11-19T04:36:09;6.20;42.80
1455;DHT22;721;48.168;12.818;2023-11-19T04:38:37;6.20;41.90
1455;DHT22;721;48.168;12.818;2023-11-19T04:41:05;6.00;43.20
1455;DHT22;721;48.168;12.818;2023-11-19T04:43:32;6.00;43.40
1455;DHT22;721;48.168;12.818;2023-11-19T04:46:03;6.00;44.10
1455;DHT22;721;48.168;12.818;2023-11-19T04:48:30;6.10;44.30
1455;DHT22;721;48.168;12.818;2023-11-19T04:50:57;6.10;43.40
1455;DHT22;721;48.168;12.818;2023-11-19T04:53:23;6.10;43.90
1455;DHT22;721;48.168;12.818;2023-11-19T04:55:50;6.10;43.70
1455;DHT22;721;48.168;12.818;2023-11-19T04:58:17;6.20;43.00
1455;DHT22;721;48.168;12.818;2023-11-19T05:00:44;6.10;43.80
1455;DHT22;721;48.168;12.818;2023-11-19T05:03:12;6.20;44.20
1455;DHT22;721;48.168;12.818;2023-11-19T05:05:39;6.20;44.20
1455;DHT22;721;48.168;12.818;2023-11-19T05:08:06;6.20;44.10
1455;DHT22;721;48.168;12.818;2023-11-19T05:10:33;6.30;43.80
1455;DHT22;721;48.168;12.818;2023-11-19T05:12:59;6.30;42.90
1455;DHT22;721;48.168;12.818;2023-11-19T05:15:26;6.20;43.30
1455;DHT22;721;48.168;12.818;2023-11-19T05:17:53;6.20;44.00
1455;DHT22;721;48.168;12.818;2023-11-19T05:20:21;6.10;44.30
1455;DHT22;721;48.168;12.818;2023-11-19T05:22:48;6.10;44.90
1455;DHT22;721;48.168;12.818;2023-11-19T05:25:18;6.30;44.60
1455;DHT22;721;48.168;12.818;2023-11-19T05:27:46;6.20;44.80
1455;DHT22;721;48.168;12.818;2023-11-19T05:30:13;6.10;45.10
1455;DHT22;721;48.168;12.818;2023-11-19T05:32:40;6.10;47.40
1455;DHT22;721;48.168;12.818;2023-11-19T05:35:08;6.10;46.40
1455;DHT22;721;48.168;12.818;2023-11-19T05:37:36;6.20;44.80
1455;DHT22;721;48.168;12.818;2023-11-19T05:40:04;6.20;44.60
1455;DHT22;721;48.168;12.818;2023-11-19T05:42:37;6.10;44.60
1455;DHT22;721;48.168;12.818;2023-11-19T05:45:05;6.10;46.10
1455;DHT22;721;48.168;12.818;2023-11-19T05:47:33;6.10;45.60
1455;DHT22;721;48.168;12.818;2023-11-19T05:50:00;6.10;46.50
1455;DHT22;721;48.168;12.818;2023-11-19T05:52:27;6.10;46.70
1455;DHT22;721;48.168;12.818;2023-11-19T05:54:59;6.10;46.90
1455;DHT22;721;48.168;12.818;2023-11-19T05:57:29;6.20;45.80
1455;DHT22;721;48.168;12.818;2023-11-19T05:59:56;6.30;45.50
1455;DHT22;721;48.168;12.818;2023-11-19T06:02:24;6.10;45.20
1455;DHT22;721;48.168;12.818;2023-11-19T06:04:52;6.10;45.50
1455;DHT22;721;48.168;12.818;2023-11-19T06:07:19;6.20;45.60
1455;DHT22;721;48.168;12.818;2023-11-19T06:09:46;6.20;44.70
1455;DHT22;721;48.168;12.818;2023-11-19T06:12:14;6.20;47.00
1455;DHT22;721;48.168;12.818;2023-11-19T06:14:41;6.20;45.40
1455;DHT22;721;48.168;12.818;2023-11-19T06:17:08;6.20;46.20
1455;DHT22;721;48.168;12.818;2023-11-19T06:19:36;6.20;45.80
1455;DHT22;721;48.168;12.818;2023-11-19T06:22:03;6.20;45.10
1455;DHT22;721;48.168;12.818;2023-11-19T06:24:30;6.20;45.40
1455;DHT22;721;48.168;12.818;2023-11-19T06:26:57;6.10;46.70
1455;DHT22;721;48.168;12.818;2023-11-19T06:29:25;6.10;48.00
1455;DHT22;721;48.168;12.818;2023-11-19T06:31:52;6.20;47.50
1455;DHT22;721;48.168;12.818;2023-11-19T06:34:18;6.20;47.50
1455;DHT22;721;48.168;12.818;2023-11-19T06:36:45;6.40;47.00
1455;DHT22;721;48.168;12.818;2023-11-19T06:39:13;6.40;46.40
1455;DHT22;721;48.168;12.818;2023-11-19T06:41:44;6.30;45.90
1455;DHT22;721;48.168;12.818;2023-11-19T06:44:11;6.30;45.80
1455;DHT22;721;48.168;12.818;2023-11-19T06:46:40;6.40;46.10
1455;DHT22;721;48.168;12.818;2023-11-19T06:49:06;6.40;46.10
1455;DHT22;721;48.168;12.818;2023-11-19T06:51:34;6.40;46.30
1455;DHT22;721;48.168;12.818;2023-11-19T06:54:01;6.40;46.10
1455;DHT22;721;48.168;12.818;2023-11-19T06:56:27;6.30;46.20
1455;DHT22;721;48.168;12.818;2023-11-19T06:58:54;6.30;46.70
1455;DHT22;721;48.168;12.818;2023-11-19T07:01:21;6.20;47.60
1455;DHT22;721;48.168;12.818;2023-11-19T07:03:49;6.20;49.00
1455;DHT22;721;48.168;12.818;2023-11-19T07:06:16;6.20;49.80
1455;DHT22;721;48.168;12.818;2023-11-19T07:08:43;6.30;50.60
1455;DHT22;721;48.168;12.818;2023-11-19T07:11:11;6.30;51.00
1455;DHT22;721;48.168;12.818;2023-11-19T07:13:39;6.40;50.20
1455;DHT22;721;48.168;12.818;2023-11-19T07:16:07;6.40;51.20
1455;DHT22;721;48.168;12.818;2023-11-19T07:18:36;6.50;51.60
1455;DHT22;721;48.168;12.818;2023-11-19T07:21:06;6.50;50.90
1455;DHT22;721;48.168;12.818;2023-11-19T07:23:35;6.60;50.60
1455;DHT22;721;48.168;12.818;2023-11-19T07:26:05;6.60;51.10
1455;DHT22;721;48.168;12.818;2023-11-19T07:28:33;6.70;51.60
1455;DHT22;721;48.168;12.818;2023-11-19T07:31:00;6.80;51.80
1455;DHT22;721;48.168;12.818;2023-11-19T07:33:27;6.90;50.40
1455;DHT22;721;48.168;12.818;2023-11-19T07:35:55;6.90;50.90
1455;DHT22;721;48.168;12.818;2023-11-19T07:38:23;6.80;50.80
1455;DHT22;721;48.168;12.818;2023-11-19T07:40:50;6.80;52.40
1455;DHT22;721;48.168;12.818;2023-11-19T07:43:16;6.90;52.80
1455;DHT22;721;48.168;12.818;2023-11-19T07:45:43;6.90;54.80
1455;DHT22;721;48.168;12.818;2023-11-19T07:48:10;6.90;56.80
1455;DHT22;721;48.168;12.818;2023-11-19T07:50:38;7.00;58.60
1455;DHT22;721;48.168;12.818;2023-11-19T07:53:06;6.90;58.90
1455;DHT22;721;48.168;12.818;2023-11-19T07:55:34;7.00;60.30
1455;DHT22;721;48.168;12.818;2023-11-19T07:58:01;7.00;61.10
1455;DHT22;721;48.168;12.818;2023-11-19T08:00:28;7.00;61.50
1455;DHT22;721;48.168;12.818;2023-11-19T08:02:55;7.00;61.90
1455;DHT22;721;48.168;12.818;2023-11-19T08:05:22;7.10;63.20
1455;DHT22;721;48.168;12.818;2023-11-19T08:07:50;7.20;63.20
1455;DHT22;721;48.168;12.818;2023-11-19T08:10:18;7.30;63.00
1455;DHT22;721;48.168;12.818;2023-11-19T08:12:50;7.30;62.90
1455;DHT22;721;48.168;12.818;2023-11-19T08:15:17;7.30;63.40
1455;DHT22;721;48.168;12.818;2023-11-19T08:17:45;7.30;65.10
1455;DHT22;721;48.168;12.818;2023-11-19T08:20:12;7.40;66.00
1455;DHT22;721;48.168;12.818;2023-11-19T08:22:40;7.40;66.00
1455;DHT22;721;48.168;12.818;2023-11-19T08:25:07;7.50;67.10
1455;DHT22;721;48.168;12.818;2023-11-19T08:27:35;7.60;67.00
1455;DHT22;721;48.168;12.818;2023-11-19T08:30:04;7.70;67.70
1455;DHT22;721;48.168;12.818;2023-11-19T08:32:32;7.70;67.70
1455;DHT22;721;48.168;12.818;2023-11-19T08:35:00;7.80;68.00
1455;DHT22;721;48.168;12.818;2023-11-19T08:37:27;7.90;68.00
1455;DHT22;721;48.168;12.818;2023-11-19T08:39:54;8.00;68.30
1455;DHT22;721;48.168;12.818;2023-11-19T08:42:21;8.00;68.40
1455;DHT22;721;48.168;12.818;2023-11-19T08:44:49;8.10;68.70
1455;DHT22;721;48.168;12.818;2023-11-19T08:47:21;8.10;69.40
1455;DHT22;721;48.168;12.818;2023-11-19T08:49:50;8.20;70.10
1455;DHT22;721;48.168;12.818;2023-11-19T08:52:18;8.30;70.30
1455;DHT22;721;48.168;12.818;2023-11-19T08:54:45;8.40;70.50
1455;DHT22;721;48.168;12.818;2023-11-19T08:57:11;8.60;71.30
1455;DHT22;721;48.168;12.818;2023-11-19T08:59:38;8.60;71.60
1455;DHT22;721;48.168;12.818;2023-11-19T09:02:05;8.70;72.70
1455;DHT22;721;48.168;12.818;2023-11-19T09:04:33;8.80;73.90
1455;DHT22;721;48.168;12.818;2023-11-19T09:07:01;8.90;75.40
1455;DHT22;721;48.168;12.818;2023-11-19T09:09:28;9.10;76.40
1455;DHT22;721;48.168;12.818;2023-11-19T09:11:55;9.30;77.60
1455;DHT22;721;48.168;12.818;2023-11-19T09:14:22;9.50;78.40
1455;DHT22;721;48.168;12.818;2023-11-19T09:16:51;9.70;79.10
1455;DHT22;721;48.168;12.818;2023-11-19T09:19:18;9.80;79.40
1455;DHT22;721;48.168;12.818;2023-11-19T09:21:46;10.00;78.60
1455;DHT22;721;48.168;12.818;2023-11-19T09:24:14;10.20;78.70
1455;DHT22;721;48.168;12.818;2023-11-19T09:26:41;10.40;78.50
1455;DHT22;721;48.168;12.818;2023-11-19T09:29:08;10.40;78.10
1455;DHT22;721;48.168;12.818;2023-11-19T09:31:35;10.60;77.60
1455;DHT22;721;48.168;12.818;2023-11-19T09:34:04;10.80;77.40
1455;DHT22;721;48.168;12.818;2023-11-19T09:36:31;11.00;76.20
1455;DHT22;721;48.168;12.818;2023-11-19T09:38:59;11.10;75.80
1455;DHT22;721;48.168;12.818;2023-11-19T09:41:27;11.30;75.30
1455;DHT22;721;48.168;12.818;2023-11-19T09:43:54;11.40;74.90
1455;DHT22;721;48.168;12.818;2023-11-19T09:46:22;11.60;73.20
1455;DHT22;721;48.168;12.818;2023-11-19T09:48:53;11.80;71.80
1455;DHT22;721;48.168;12.818;2023-11-19T09:51:20;11.90;70.50
1455;DHT22;721;48.168;12.818;2023-11-19T09:53:47;12.00;69.00
1455;DHT22;721;48.168;12.818;2023-11-19T09:56:16;12.10;69.00
1455;DHT22;721;48.168;12.818;2023-11-19T09:58:44;12.10;66.60
1455;DHT22;721;48.168;12.818;2023-11-19T10:01:11;12.30;67.70
1455;DHT22;721;48.168;12.818;2023-11-19T10:03:39;12.30;66.60
1455;DHT22;721;48.168;12.818;2023-11-19T10:06:10;12.40;65.40
1455;DHT22;721;48.168;12.818;2023-11-19T10:08:37;12.50;63.60
1455;DHT22;721;48.168;12.818;2023-11-19T10:11:05;12.50;62.80
1455;DHT22;721;48.168;12.818;2023-11-19T10:13:35;12.60;61.90
1455;DHT22;721;48.168;12.818;2023-11-19T10:16:06;12.70;61.60
1455;DHT22;721;48.168;12.818;2023-11-19T10:18:34;12.70;62.90
1455;DHT22;721;48.168;12.818;2023-11-19T10:21:04;12.70;58.20
1455;DHT22;721;48.168;12.818;2023-11-19T10:23:31;12.80;58.60
1455;DHT22;721;48.168;12.818;2023-11-19T10:26:10;12.80;57.10
1455;DHT22;721;48.168;12.818;2023-11-19T10:28:40;12.80;55.30
1455;DHT22;721;48.168;12.818;2023-11-19T10:31:09;12.80;55.70
1455;DHT22;721;48.168;12.818;2023-11-19T10:33:36;12.90;56.70
1455;DHT22;721;48.168;12.818;2023-11-19T10:36:03;13.00;54.30
1455;DHT22;721;48.168;12.818;2023-11-19T10:38:30;13.00;51.20
1455;DHT22;721;48.168;12.818;2023-11-19T10:40:57;13.10;53.70
1455;DHT22;721;48.168;12.818;2023-11-19T10:43:24;13.30;52.10
1455;DHT22;721;48.168;12.818;2023-11-19T10:45:52;13.40;48.40
1455;DHT22;721;48.168;12.818;2023-11-19T10:48:19;13.40;47.00
1455;DHT22;721;48.168;12.818;2023-11-19T10:50:52;13.40;46.40
1455;DHT22;721;48.168;12.818;2023-11-19T10:53:20;13.50;45.40
1455;DHT22;721;48.168;12.818;2023-11-19T10:55:51;13.50;44.70
1455;DHT22;721;48.168;12.818;2023-11-19T10:58:20;13.50;42.70
1455;DHT22;721;48.168;12.818;2023-11-19T11:00:50;13.40;42.00
1455;DHT22;721;48.168;12.818;2023-11-19T11:03:20;13.40;45.20
1455;DHT22;721;48.168;12.818;2023-11-19T11:05:49;13.20;45.30
1455;DHT22;721;48.168;12.818;2023-11-19T11:08:16;13.20;47.30
1455;DHT22;721;48.168;12.818;2023-11-19T11:10:45;13.10;45.80
1455;DHT22;721;48.168;12.818;2023-11-19T11:13:13;13.10;46.90
1455;DHT22;721;48.168;12.818;2023-11-19T11:15:40;13.00;45.60
1455;DHT22;721;48.168;12.818;2023-11-19T11:18:09;13.00;46.30
1455;DHT22;721;48.168;12.818;2023-11-19T11:20:37;13.00;45.20
1455;DHT22;721;48.168;12.818;2023-11-19T11:23:43;13.00;44.90
1455;DHT22;721;48.168;12.818;2023-11-19T11:26:29;13.00;42.90
1455;DHT22;721;48.168;12.818;2023-11-19T11:29:02;13.00;44.50
1455;DHT22;721;48.168;12.818;2023-11-19T11:31:37;13.00;44.40
1455;DHT22;721;48.168;12.818;2023-11-19T11:34:26;13.10;44.10
1455;DHT22;721;48.168;12.818;2023-11-19T11:37:06;13.10;41.90
1455;DHT22;721;48.168;12.818;2023-11-19T11:39:39;13.20;43.10
1455;DHT22;721;48.168;12.818;2023-11-19T11:42:31;13.30;42.30
1455;DHT22;721;48.168;12.818;2023-11-19T11:44:59;13.30;40.10
1455;DHT22;721;48.168;12.818;2023-11-19T11:48:06;13.40;39.70
1455;DHT22;721;48.168;12.818;2023-11-19T11:50:36;13.40;40.50
1455;DHT22;721;48.168;12.818;2023-11-19T11:53:18;13.40;37.50
1455;DHT22;721;48.168;12.818;2023-11-19T11:55:58;13.50;33.90
1455;DHT22;721;48.168;12.818;2023-11-19T11:58:31;13.60;34.00
1455;DHT22;721;48.168;12.818;2023-11-19T12:00:58;13.60;30.70
1455;DHT22;721;48.168;12.818;2023-11-19T12:03:27;13.70;31.70
1455;DHT22;721;48.168;12.818;2023-11-19T12:05:55;13.70;29.30
1455;DHT22;721;48.168;12.818;2023-11-19T12:08:27;13.80;28.30
1455;DHT22;721;48.168;12.818;2023-11-19T12:10:56;13.80;28.40
1455;DHT22;721;48.168;12.818;2023-11-19T12:13:26;13.80;29.00
1455;DHT22;721;48.168;12.818;2023-11-19T12:16:08;13.80;28.90
1455;DHT22;721;48.168;12.818;2023-11-19T12:18:39;14.00;27.70
1455;DHT22;721;48.168;12.818;2023-11-19T12:21:07;14.00;28.20
1455;DHT22;721;48.168;12.818;2023-11-19T12:23:46;14.10;27.80
1455;DHT22;721;48.168;12.818;2023-11-19T12:26:33;14.20;27.70
1455;DHT22;721;48.168;12.818;2023-11-19T12:29:01;14.10;27.00
1455;DHT22;721;48.168;12.818;2023-11-19T12:31:31;14.00;27.00
1455;DHT22;721;48.168;12.818;2023-11-19T12:34:05;14.10;28.40
1455;DHT22;721;48.168;12.818;2023-11-19T12:36:31;14.10;29.60
1455;DHT22;721;48.168;12.818;2023-11-19T12:39:00;14.20;27.20
1455;DHT22;721;48.168;12.818;2023-11-19T12:41:27;14.40;26.00
1455;DHT22;721;48.168;12.818;2023-11-19T12:44:03;14.70;23.90
1455;DHT22;721;48.168;12.818;2023-11-19T12:46:35;15.00;20.30
1455;DHT22;721;48.168;12.818;2023-11-19T12:49:01;15.10;19.70
1455;DHT22;721;48.168;12.818;2023-11-19T12:51:31;15.10;17.40
1455;DHT22;721;48.168;12.818;2023-11-19T12:53:57;15.20;17.00
1455;DHT22;721;48.168;12.818;2023-11-19T12:56:26;15.20;17.40
1455;DHT22;721;48.168;12.818;2023-11-19T12:58:52;15.20;15.50
1455;DHT22;721;48.168;12.818;2023-11-19T13:01:20;15.10;16.00
1455;DHT22;721;48.168;12.818;2023-11-19T13:03:47;14.80;17.70
1455;DHT22;721;48.168;12.818;2023-11-19T13:06:16;14.80;17.50
1455;DHT22;721;48.168;12.818;2023-11-19T13:08:47;14.60;17.70
1455;DHT22;721;48.168;12.818;2023-11-19T13:11:31;14.50;19.30
1455;DHT22;721;48.168;12.818;2023-11-19T13:13:59;14.40;19.30
1455;DHT22;721;48.168;12.818;2023-11-19T13:16:26;14.30;19.60
1455;DHT22;721;48.168;12.818;2023-11-19T13:18:53;14.30;21.00
1455;DHT22;721;48.168;12.818;2023-11-19T13:21:20;14.30;19.90
1455;DHT22;721;48.168;12.818;2023-11-19T13:23:47;14.40;20.70
1455;DHT22;721;48.168;12.818;2023-11-19T13:26:14;14.50;19.60
1455;DHT22;721;48.168;12.818;2023-11-19T13:28:42;14.40;19.60
1455;DHT22;721;48.168;12.818;2023-11-19T13:31:09;14.50;20.70
1455;DHT22;721;48.168;12.818;2023-11-19T13:33:36;14.80;20.50
1455;DHT22;721;48.168;12.818;2023-11-19T13:36:03;15.00;17.30
1455;DHT22;721;48.168;12.818;2023-11-19T13:38:31;15.20;16.60
1455;DHT22;721;48.168;12.818;2023-11-19T13:40:59;15.50;14.10
1455;DHT22;721;48.168;12.818;2023-11-19T13:43:26;15.50;12.70
1455;DHT22;721;48.168;12.818;2023-11-19T13:45:55;15.70;12.40
1455;DHT22;721;48.168;12.818;2023-11-19T13:48:22;15.50;10.80
1455;DHT22;721;48.168;12.818;2023-11-19T13:50:49;15.50;11.90
1455;DHT22;721;48.168;12.818;2023-11-19T13:53:16;15.60;11.20
1455;DHT22;721;48.168;12.818;2023-11-19T13:55:43;15.80;9.20
1455;DHT22;721;48.168;12.818;2023-11-19T13:58:10;15.90;8.90
1455;DHT22;721;48.168;12.818;2023-11-19T14:00:37;15.80;7.80
1455;DHT22;721;48.168;12.818;2023-11-19T14:03:05;15.70;8.80
1455;DHT22;721;48.168;12.818;2023-11-19T14:05:32;15.80;8.80
1455;DHT22;721;48.168;12.818;2023-11-19T14:07:59;16.00;8.20
1455;DHT22;721;48.168;12.818;2023-11-19T14:10:26;16.00;8.00
1455;DHT22;721;48.168;12.818;2023-11-19T14:12:54;16.00;8.50
1455;DHT22;721;48.168;12.818;2023-11-19T14:15:20;16.10;6.60
1455;DHT22;721;48.168;12.818;2023-11-19T14:17:47;16.10;6.90
1455;DHT22;721;48.168;12.818;2023-11-19T14:20:16;16.20;6.60
1455;DHT22;721;48.168;12.818;2023-11-19T14:22:44;16.30;6.70
1455;DHT22;721;48.168;12.818;2023-11-19T14:25:13;16.20;6.20
1455;DHT22;721;48.168;12.818;2023-11-19T14:27:41;16.00;6.50
1455;DHT22;721;48.168;12.818;2023-11-19T14:30:10;15.90;6.40
1455;DHT22;721;48.168;12.818;2023-11-19T14:32:39;15.70;6.30
1455;DHT22;721;48.168;12.818;2023-11-19T14:35:08;15.50;6.70
1455;DHT22;721;48.168;12.818;2023-11-19T14:37:36;15.40;7.60
1455;DHT22;721;48.168;12.818;2023-11-19T14:40:04;15.20;7.90
1455;DHT22;721;48.168;12.818;2023-11-19T14:42:31;15.00;9.30
1455;DHT22;721;48.168;12.818;2023-11-19T14:44:59;14.90;10.10
1455;DHT22;721;48.168;12.818;2023-11-19T14:47:26;14.80;10.80
1455;DHT22;721;48.168;12.818;2023-11-19T14:49:53;14.70;11.40
1455;DHT22;721;48.168;12.818;2023-11-19T14:52:20;14.60;11.80
1455;DHT22;721;48.168;12.818;2023-11-19T14:54:49;14.60;12.60
1455;DHT22;721;48.168;12.818;2023-11-19T14:57:16;14.50;13.40
1455;DHT22;721;48.168;12.818;2023-11-19T14:59:43;14.40;13.40
1455;DHT22;721;48.168;12.818;2023-11-19T15:02:11;14.40;14.50
1455;DHT22;721;48.168;12.818;2023-11-19T15:04:38;14.30;15.30
1455;DHT22;721;48.168;12.818;2023-11-19T15:07:06;14.30;15.50
1455;DHT22;721;48.168;12.818;2023-11-19T15:09:33;14.20;15.70
1455;DHT22;721;48.168;12.818;2023-11-19T15:12:04;14.10;16.40
1455;DHT22;721;48.168;12.818;2023-11-19T15:14:31;14.00;17.00
1455;DHT22;721;48.168;12.818;2023-11-19T15:16:58;14.00;17.60
1455;DHT22;721;48.168;12.818;2023-11-19T15:19:25;13.90;17.60
1455;DHT22;721;48.168;12.818;2023-11-19T15:21:52;13.90;17.90
1455;DHT22;721;48.168;12.818;2023-11-19T15:24:20;13.80;18.60
1455;DHT22;721;48.168;12.818;2023-11-19T15:26:47;13.70;19.40
1455;DHT22;721;48.168;12.818;2023-11-19T15:29:15;13.60;20.20
1455;DHT22;721;48.168;12.818;2023-11-19T15:31:42;13.60;20.80
1455;DHT22;721;48.168;12.818;2023-11-19T15:34:09;13.60;21.40
1455;DHT22;721;48.168;12.818;2023-11-19T15:36:36;13.60;21.30
1455;DHT22;721;48.168;12.818;2023-11-19T15:39:03;13.60;21.90
1455;DHT22;721;48.168;12.818;2023-11-19T15:41:31;13.60;22.20
1455;DHT22;721;48.168;12.818;2023-11-19T15:43:58;13.60;22.50
1455;DHT22;721;48.168;12.818;2023-11-19T15:46:26;13.60;22.70
1455;DHT22;721;48.168;12.818;2023-11-19T15:48:53;13.50;22.90
1455;DHT22;721;48.168;12.818;2023-11-19T15:51:20;13.50;22.90
1455;DHT22;721;48.168;12.818;2023-11-19T15:53:48;13.50;23.20
1455;DHT22;721;48.168;12.818;2023-11-19T15:56:15;13.40;23.50
1455;DHT22;721;48.168;12.818;2023-11-19T15:58:42;13.40;23.70
1455;DHT22;721;48.168;12.818;2023-11-19T16:01:09;13.30;24.00
1455;DHT22;721;48.168;12.818;2023-11-19T16:03:37;13.30;24.60
1455;DHT22;721;48.168;12.818;2023-11-19T16:06:05;13.20;24.60
1455;DHT22;721;48.168;12.818;2023-11-19T16:08:32;13.20;25.00
1455;DHT22;721;48.168;12.818;2023-11-19T16:10:59;13.20;24.70
1455;DHT22;721;48.168;12.818;2023-11-19T16:13:26;13.10;24.90
1455;DHT22;721;48.168;12.818;2023-11-19T16:15:53;13.10;25.10
1455;DHT22;721;48.168;12.818;2023-11-19T16:18:20;13.00;25.40
1455;DHT22;721;48.168;12.818;2023-11-19T16:20:48;13.10;25.40